sensor_id;sensor_type;location;lat;lon;timestamp;temperature;humidity
17442;DHT22;8838;50.144;8.176;2022-09-09T00:01:04;15.10;99.90
17442;DHT22;8838;50.144;8.176;2022-09-09T00:03:40;15.10;99.90
17442;DHT22;8838;50.144;8.176;2022-09-09T00:06:19;15.10;99.90
17442;DHT22;8838;50.144;8.176;2022-09-09T00:09:01;15.00;99.90
17442;DHT22;8838;50.144;8.176;2022-09-09T00:11:32;15.00;99.90
17442;DHT22;8838;50.144;8.176;2022-09-09T00:14:03;15.10;99.90
17442;DHT22;8838;50.144;8.176;2022-09-09T00:16:36;15.10;99.90
17442;DHT22;8838;50.144;8.176;2022-09-09T00:19:07;15.10;99.90
17442;DHT22;8838;50.144;8.176;2022-09-09T00:21:47;15.00;99.90
17442;DHT22;8838;50.144;8.176;2022-09-09T00:24:26;15.00;99.90
17442;DHT22;8838;50.144;8.176;2022-09-09T00:26:59;14.90;99.90
17442;DHT22;8838;50.144;8.176;2022-09-09T00:29:35;14.90;99.90
17442;DHT22;8838;50.144;8.176;2022-09-09T00:32:12;14.90;99.90
17442;DHT22;8838;50.144;8.176;2022-09-09T00:34:47;14.90;99.90
17442;DHT22;8838;50.144;8.176;2022-09-09T00:37:15;14.80;99.90
17442;DHT22;8838;50.144;8.176;2022-09-09T00:39:45;14.80;99.90
17442;DHT22;8838;50.144;8.176;2022-09-09T00:42:15;14.70;99.90
17442;DHT22;8838;50.144;8.176;2022-09-09T00:44:56;14.70;99.90
17442;DHT22;8838;50.144;8.176;2022-09-09T00:47:40;14.70;99.90
17442;DHT22;8838;50.144;8.176;2022-09-09T00:50:26;14.70;99.90
17442;DHT22;8838;50.144;8.176;2022-09-09T00:53:05;14.60;99.90
17442;DHT22;8838;50.144;8.176;2022-09-09T00:55:43;14.60;99.90
17442;DHT22;8838;50.144;8.176;2022-09-09T00:58:13;14.60;99.90
17442;DHT22;8838;50.144;8.176;2022-09-09T01:00:44;14.60;99.90
17442;DHT22;8838;50.144;8.176;2022-09-09T01:03:21;14.50;99.90
17442;DHT22;8838;50.144;8.176;2022-09-09T01:06:00;14.50;99.90
17442;DHT22;8838;50.144;8.176;2022-09-09T01:08:52;14.50;99.90
17442;DHT22;8838;50.144;8.176;2022-09-09T01:11:22;14.50;99.90
17442;DHT22;8838;50.144;8.176;2022-09-09T01:13:56;14.50;99.90
17442;DHT22;8838;50.144;8.176;2022-09-09T01:16:26;14.50;99.90
17442;DHT22;8838;50.144;8.176;2022-09-09T01:18:56;14.40;99.90
17442;DHT22;8838;50.144;8.176;2022-09-09T01:21:32;14.40;99.90
17442;DHT22;8838;50.144;8.176;2022-09-09T01:24:21;14.40;99.90
17442;DHT22;8838;50.144;8.176;2022-09-09T01:26:52;14.40;99.90
17442;DHT22;8838;50.144;8.176;2022-09-09T01:29:23;14.40;99.90
17442;DHT22;8838;50.144;8.176;2022-09-09T01:31:55;14.40;99.90
17442;DHT22;8838;50.144;8.176;2022-09-09T01:34:24;14.40;99.90
17442;DHT22;8838;50.144;8.176;2022-09-09T01:36:56;14.30;99.90
17442;DHT22;8838;50.144;8.176;2022-09-09T01:39:24;14.30;99.90
17442;DHT22;8838;50.144;8.176;2022-09-09T01:41:53;14.20;99.90
17442;DHT22;8838;50.144;8.176;2022-09-09T01:44:22;14.30;99.90
17442;DHT22;8838;50.144;8.176;2022-09-09T01:46:49;14.30;99.90
17442;DHT22;8838;50.144;8.176;2022-09-09T01:49:17;14.30;99.90
17442;DHT22;8838;50.144;8.176;2022-09-09T01:51:47;14.40;99.90
17442;DHT22;8838;50.144;8.176;2022-09-09T01:54:15;14.30;99.90
17442;DHT22;8838;50.144;8.176;2022-09-09T01:56:50;14.30;99.90
17442;DHT22;8838;50.144;8.176;2022-09-09T02:02:26;14.40;99.90
17442;DHT22;8838;50.144;8.176;2022-09-09T02:04:59;14.40;99.90
17442;DHT22;8838;50.144;8.176;2022-09-09T02:07:38;14.40;99.90
17442;DHT22;8838;50.144;8.176;2022-09-09T02:10:10;14.30;99.90
17442;DHT22;8838;50.144;8.176;2022-09-09T02:12:41;14.40;99.90
17442;DHT22;8838;50.144;8.176;2022-09-09T02:15:17;14.40;99.90
17442;DHT22;8838;50.144;8.176;2022-09-09T02:17:50;14.40;99.90
17442;DHT22;8838;50.144;8.176;2022-09-09T02:20:19;14.50;99.90
17442;DHT22;8838;50.144;8.176;2022-09-09T02:22:49;14.50;99.90
17442;DHT22;8838;50.144;8.176;2022-09-09T02:25:20;14.50;99.90
17442;DHT22;8838;50.144;8.176;2022-09-09T02:27:50;14.60;99.90
17442;DHT22;8838;50.144;8.176;2022-09-09T02:30:18;14.60;99.90
17442;DHT22;8838;50.144;8.176;2022-09-09T02:32:48;14.60;99.90
17442;DHT22;8838;50.144;8.176;2022-09-09T02:35:20;14.60;99.90
17442;DHT22;8838;50.144;8.176;2022-09-09T02:37:51;14.70;99.90
17442;DHT22;8838;50.144;8.176;2022-09-09T02:40:19;14.70;99.90
17442;DHT22;8838;50.144;8.176;2022-09-09T02:42:48;14.60;99.90
17442;DHT22;8838;50.144;8.176;2022-09-09T02:45:18;14.60;99.90
17442;DHT22;8838;50.144;8.176;2022-09-09T02:47:50;14.60;99.90
17442;DHT22;8838;50.144;8.176;2022-09-09T02:50:23;14.50;99.90
17442;DHT22;8838;50.144;8.176;2022-09-09T02:53:00;14.50;99.90
17442;DHT22;8838;50.144;8.176;2022-09-09T02:55:37;14.40;99.90
17442;DHT22;8838;50.144;8.176;2022-09-09T02:58:07;14.40;99.90
17442;DHT22;8838;50.144;8.176;2022-09-09T03:00:38;14.40;99.90
17442;DHT22;8838;50.144;8.176;2022-09-09T03:03:06;14.40;99.90
17442;DHT22;8838;50.144;8.176;2022-09-09T03:05:34;14.40;99.90
17442;DHT22;8838;50.144;8.176;2022-09-09T03:08:02;14.40;99.90
17442;DHT22;8838;50.144;8.176;2022-09-09T03:10:29;14.40;99.90
17442;DHT22;8838;50.144;8.176;2022-09-09T03:12:55;14.30;99.90
17442;DHT22;8838;50.144;8.176;2022-09-09T03:15:22;14.30;99.90
17442;DHT22;8838;50.144;8.176;2022-09-09T03:17:51;14.30;99.90
17442;DHT22;8838;50.144;8.176;2022-09-09T03:20:18;14.30;99.90
17442;DHT22;8838;50.144;8.176;2022-09-09T03:22:45;14.30;99.90
17442;DHT22;8838;50.144;8.176;2022-09-09T03:25:12;14.30;99.90
17442;DHT22;8838;50.144;8.176;2022-09-09T03:27:39;14.40;99.90
17442;DHT22;8838;50.144;8.176;2022-09-09T03:30:06;14.40;99.90
17442;DHT22;8838;50.144;8.176;2022-09-09T03:32:33;14.40;99.90
17442;DHT22;8838;50.144;8.176;2022-09-09T03:35:02;14.40;99.90
17442;DHT22;8838;50.144;8.176;2022-09-09T03:37:29;14.40;99.90
17442;DHT22;8838;50.144;8.176;2022-09-09T03:39:57;14.50;99.90
17442;DHT22;8838;50.144;8.176;2022-09-09T03:42:25;14.50;99.90
17442;DHT22;8838;50.144;8.176;2022-09-09T03:44:52;14.40;99.90
17442;DHT22;8838;50.144;8.176;2022-09-09T03:47:21;14.50;99.90
17442;DHT22;8838;50.144;8.176;2022-09-09T03:49:48;14.60;99.90
17442;DHT22;8838;50.144;8.176;2022-09-09T03:52:16;14.50;99.90
17442;DHT22;8838;50.144;8.176;2022-09-09T03:54:44;14.50;99.90
17442;DHT22;8838;50.144;8.176;2022-09-09T03:57:13;14.50;99.90
17442;DHT22;8838;50.144;8.176;2022-09-09T03:59:42;14.50;99.90
17442;DHT22;8838;50.144;8.176;2022-09-09T04:02:09;14.50;99.90
17442;DHT22;8838;50.144;8.176;2022-09-09T04:04:36;14.60;99.90
17442;DHT22;8838;50.144;8.176;2022-09-09T04:07:03;14.50;99.90
17442;DHT22;8838;50.144;8.176;2022-09-09T04:09:33;14.50;99.90
17442;DHT22;8838;50.144;8.176;2022-09-09T04:12:00;14.60;99.90
17442;DHT22;8838;50.144;8.176;2022-09-09T04:14:27;14.50;99.90
17442;DHT22;8838;50.144;8.176;2022-09-09T04:16:54;14.60;99.90
17442;DHT22;8838;50.144;8.176;2022-09-09T04:19:22;14.50;99.90
17442;DHT22;8838;50.144;8.176;2022-09-09T04:21:49;14.60;99.90
17442;DHT22;8838;50.144;8.176;2022-09-09T04:24:16;14.60;99.90
17442;DHT22;8838;50.144;8.176;2022-09-09T04:26:44;14.60;99.90
17442;DHT22;8838;50.144;8.176;2022-09-09T04:29:12;14.60;99.90
17442;DHT22;8838;50.144;8.176;2022-09-09T04:31:39;14.60;99.90
17442;DHT22;8838;50.144;8.176;2022-09-09T04:34:07;14.60;99.90
17442;DHT22;8838;50.144;8.176;2022-09-09T04:36:34;14.60;99.90
17442;DHT22;8838;50.144;8.176;2022-09-09T04:39:02;14.60;99.90
17442;DHT22;8838;50.144;8.176;2022-09-09T04:41:29;14.60;99.90
17442;DHT22;8838;50.144;8.176;2022-09-09T04:43:58;14.60;99.90
17442;DHT22;8838;50.144;8.176;2022-09-09T04:46:26;14.60;99.90
17442;DHT22;8838;50.144;8.176;2022-09-09T04:48:53;14.60;99.90
17442;DHT22;8838;50.144;8.176;2022-09-09T04:51:20;14.70;99.90
17442;DHT22;8838;50.144;8.176;2022-09-09T04:53:47;14.60;99.90
17442;DHT22;8838;50.144;8.176;2022-09-09T04:56:16;14.60;99.90
17442;DHT22;8838;50.144;8.176;2022-09-09T04:58:43;14.50;99.90
17442;DHT22;8838;50.144;8.176;2022-09-09T05:01:14;14.50;99.90
17442;DHT22;8838;50.144;8.176;2022-09-09T05:03:43;14.50;99.90
17442;DHT22;8838;50.144;8.176;2022-09-09T05:06:12;14.40;99.90
17442;DHT22;8838;50.144;8.176;2022-09-09T05:08:40;14.40;99.90
17442;DHT22;8838;50.144;8.176;2022-09-09T05:11:14;14.40;99.90
17442;DHT22;8838;50.144;8.176;2022-09-09T05:13:41;14.30;99.90
17442;DHT22;8838;50.144;8.176;2022-09-09T05:16:08;14.20;99.90
17442;DHT22;8838;50.144;8.176;2022-09-09T05:18:38;14.20;99.90
17442;DHT22;8838;50.144;8.176;2022-09-09T05:21:05;14.30;99.90
17442;DHT22;8838;50.144;8.176;2022-09-09T05:23:32;14.30;99.90
17442;DHT22;8838;50.144;8.176;2022-09-09T05:25:59;14.30;99.90
17442;DHT22;8838;50.144;8.176;2022-09-09T05:28:27;14.30;99.90
17442;DHT22;8838;50.144;8.176;2022-09-09T05:30:58;14.40;99.90
17442;DHT22;8838;50.144;8.176;2022-09-09T05:33:26;14.40;99.90
17442;DHT22;8838;50.144;8.176;2022-09-09T05:35:58;14.40;99.90
17442;DHT22;8838;50.144;8.176;2022-09-09T05:38:28;14.50;99.90
17442;DHT22;8838;50.144;8.176;2022-09-09T05:40:55;14.50;99.90
17442;DHT22;8838;50.144;8.176;2022-09-09T05:43:23;14.50;99.90
17442;DHT22;8838;50.144;8.176;2022-09-09T05:45:59;14.60;99.90
17442;DHT22;8838;50.144;8.176;2022-09-09T05:48:28;14.70;99.90
17442;DHT22;8838;50.144;8.176;2022-09-09T05:50:56;14.70;99.90
17442;DHT22;8838;50.144;8.176;2022-09-09T05:53:24;14.70;99.90
17442;DHT22;8838;50.144;8.176;2022-09-09T05:55:58;14.70;99.90
17442;DHT22;8838;50.144;8.176;2022-09-09T05:58:25;14.70;99.90
17442;DHT22;8838;50.144;8.176;2022-09-09T06:00:52;14.80;99.90
17442;DHT22;8838;50.144;8.176;2022-09-09T06:03:19;14.70;99.90
17442;DHT22;8838;50.144;8.176;2022-09-09T06:05:57;14.70;99.90
17442;DHT22;8838;50.144;8.176;2022-09-09T06:08:25;14.70;99.90
17442;DHT22;8838;50.144;8.176;2022-09-09T06:10:53;14.70;99.90
17442;DHT22;8838;50.144;8.176;2022-09-09T06:13:20;14.70;99.90
17442;DHT22;8838;50.144;8.176;2022-09-09T06:15:50;14.70;99.90
17442;DHT22;8838;50.144;8.176;2022-09-09T06:18:17;14.80;99.90
17442;DHT22;8838;50.144;8.176;2022-09-09T06:20:54;14.90;99.90
17442;DHT22;8838;50.144;8.176;2022-09-09T06:23:20;15.00;99.90
17442;DHT22;8838;50.144;8.176;2022-09-09T06:25:49;15.20;99.90
17442;DHT22;8838;50.144;8.176;2022-09-09T06:28:16;15.30;99.90
17442;DHT22;8838;50.144;8.176;2022-09-09T06:30:43;15.60;99.90
17442;DHT22;8838;50.144;8.176;2022-09-09T06:33:10;15.70;99.90
17442;DHT22;8838;50.144;8.176;2022-09-09T06:35:37;15.80;99.90
17442;DHT22;8838;50.144;8.176;2022-09-09T06:38:03;15.90;99.90
17442;DHT22;8838;50.144;8.176;2022-09-09T06:40:31;16.10;99.90
17442;DHT22;8838;50.144;8.176;2022-09-09T06:43:01;16.10;99.90
17442;DHT22;8838;50.144;8.176;2022-09-09T06:45:28;16.00;99.90
17442;DHT22;8838;50.144;8.176;2022-09-09T06:47:55;15.90;99.90
17442;DHT22;8838;50.144;8.176;2022-09-09T06:50:24;15.90;99.90
17442;DHT22;8838;50.144;8.176;2022-09-09T06:52:51;15.70;99.90
17442;DHT22;8838;50.144;8.176;2022-09-09T06:55:18;15.60;99.90
17442;DHT22;8838;50.144;8.176;2022-09-09T06:57:46;15.50;99.90
17442;DHT22;8838;50.144;8.176;2022-09-09T07:00:15;15.40;99.90
17442;DHT22;8838;50.144;8.176;2022-09-09T07:02:42;15.60;99.90
17442;DHT22;8838;50.144;8.176;2022-09-09T07:05:10;15.70;99.90
17442;DHT22;8838;50.144;8.176;2022-09-09T07:07:37;15.90;99.90
17442;DHT22;8838;50.144;8.176;2022-09-09T07:10:04;16.00;99.90
17442;DHT22;8838;50.144;8.176;2022-09-09T07:12:31;16.00;99.90
17442;DHT22;8838;50.144;8.176;2022-09-09T07:14:58;16.00;99.90
17442;DHT22;8838;50.144;8.176;2022-09-09T07:17:27;15.90;99.90
17442;DHT22;8838;50.144;8.176;2022-09-09T07:19:54;15.80;99.90
17442;DHT22;8838;50.144;8.176;2022-09-09T07:22:22;15.80;99.90
17442;DHT22;8838;50.144;8.176;2022-09-09T07:24:50;15.80;99.90
17442;DHT22;8838;50.144;8.176;2022-09-09T07:27:17;15.70;99.90
17442;DHT22;8838;50.144;8.176;2022-09-09T07:29:44;15.60;99.90
17442;DHT22;8838;50.144;8.176;2022-09-09T07:32:14;15.70;99.90
17442;DHT22;8838;50.144;8.176;2022-09-09T07:34:42;15.60;99.90
17442;DHT22;8838;50.144;8.176;2022-09-09T07:37:09;15.60;99.90
17442;DHT22;8838;50.144;8.176;2022-09-09T07:39:37;15.60;99.90
17442;DHT22;8838;50.144;8.176;2022-09-09T07:42:04;15.70;99.90
17442;DHT22;8838;50.144;8.176;2022-09-09T07:44:31;15.80;99.90
17442;DHT22;8838;50.144;8.176;2022-09-09T07:47:00;15.90;99.90
17442;DHT22;8838;50.144;8.176;2022-09-09T07:49:27;16.00;99.90
17442;DHT22;8838;50.144;8.176;2022-09-09T07:51:55;16.00;99.90
17442;DHT22;8838;50.144;8.176;2022-09-09T07:54:23;16.10;99.90
17442;DHT22;8838;50.144;8.176;2022-09-09T07:56:50;16.10;99.90
17442;DHT22;8838;50.144;8.176;2022-09-09T07:59:17;16.10;99.90
17442;DHT22;8838;50.144;8.176;2022-09-09T08:01:46;16.10;99.90
17442;DHT22;8838;50.144;8.176;2022-09-09T08:04:16;16.10;99.90
17442;DHT22;8838;50.144;8.176;2022-09-09T08:06:45;16.10;99.90
17442;DHT22;8838;50.144;8.176;2022-09-09T08:09:14;16.20;99.90
17442;DHT22;8838;50.144;8.176;2022-09-09T08:11:42;16.30;99.90
17442;DHT22;8838;50.144;8.176;2022-09-09T08:14:10;16.30;99.90
17442;DHT22;8838;50.144;8.176;2022-09-09T08:16:39;16.30;99.90
17442;DHT22;8838;50.144;8.176;2022-09-09T08:19:07;16.30;99.90
17442;DHT22;8838;50.144;8.176;2022-09-09T08:21:35;16.40;99.90
17442;DHT22;8838;50.144;8.176;2022-09-09T08:24:05;16.50;99.90
17442;DHT22;8838;50.144;8.176;2022-09-09T08:26:35;16.60;99.90
17442;DHT22;8838;50.144;8.176;2022-09-09T08:29:04;16.70;99.90
17442;DHT22;8838;50.144;8.176;2022-09-09T08:31:33;16.70;99.90
17442;DHT22;8838;50.144;8.176;2022-09-09T08:34:01;16.60;99.90
17442;DHT22;8838;50.144;8.176;2022-09-09T08:36:30;16.50;99.90
17442;DHT22;8838;50.144;8.176;2022-09-09T08:38:59;16.50;99.90
17442;DHT22;8838;50.144;8.176;2022-09-09T08:45:00;16.60;99.90
17442;DHT22;8838;50.144;8.176;2022-09-09T08:47:35;16.80;99.90
17442;DHT22;8838;50.144;8.176;2022-09-09T08:50:19;16.80;99.90
17442;DHT22;8838;50.144;8.176;2022-09-09T08:52:54;16.90;99.90
17442;DHT22;8838;50.144;8.176;2022-09-09T08:55:27;17.00;99.90
17442;DHT22;8838;50.144;8.176;2022-09-09T08:57:57;17.00;99.90
17442;DHT22;8838;50.144;8.176;2022-09-09T09:00:33;17.10;99.90
17442;DHT22;8838;50.144;8.176;2022-09-09T09:03:06;17.20;99.90
17442;DHT22;8838;50.144;8.176;2022-09-09T09:05:40;17.30;99.90
17442;DHT22;8838;50.144;8.176;2022-09-09T09:08:20;17.30;99.90
17442;DHT22;8838;50.144;8.176;2022-09-09T09:10:53;17.30;99.90
17442;DHT22;8838;50.144;8.176;2022-09-09T09:13:37;17.30;99.90
17442;DHT22;8838;50.144;8.176;2022-09-09T09:16:26;17.20;99.90
17442;DHT22;8838;50.144;8.176;2022-09-09T09:18:58;17.60;99.90
17442;DHT22;8838;50.144;8.176;2022-09-09T09:21:32;17.80;99.90
17442;DHT22;8838;50.144;8.176;2022-09-09T09:24:01;18.40;99.90
17442;DHT22;8838;50.144;8.176;2022-09-09T09:26:34;19.00;99.90
17442;DHT22;8838;50.144;8.176;2022-09-09T09:29:11;19.50;99.90
17442;DHT22;8838;50.144;8.176;2022-09-09T09:31:45;19.10;99.90
17442;DHT22;8838;50.144;8.176;2022-09-09T09:34:14;18.90;99.90
17442;DHT22;8838;50.144;8.176;2022-09-09T09:36:46;18.80;99.90
17442;DHT22;8838;50.144;8.176;2022-09-09T09:39:23;19.10;99.90
17442;DHT22;8838;50.144;8.176;2022-09-09T09:41:51;20.20;99.90
17442;DHT22;8838;50.144;8.176;2022-09-09T09:44:26;21.60;99.90
17442;DHT22;8838;50.144;8.176;2022-09-09T09:47:06;22.50;99.90
17442;DHT22;8838;50.144;8.176;2022-09-09T09:49:33;22.20;99.90
17442;DHT22;8838;50.144;8.176;2022-09-09T09:52:01;22.30;99.90
17442;DHT22;8838;50.144;8.176;2022-09-09T09:54:30;22.40;99.90
17442;DHT22;8838;50.144;8.176;2022-09-09T09:57:08;21.60;99.90
17442;DHT22;8838;50.144;8.176;2022-09-09T09:59:36;20.40;99.90
17442;DHT22;8838;50.144;8.176;2022-09-09T10:02:18;20.10;99.90
17442;DHT22;8838;50.144;8.176;2022-09-09T10:04:46;19.50;99.90
17442;DHT22;8838;50.144;8.176;2022-09-09T10:07:17;19.00;99.90
17442;DHT22;8838;50.144;8.176;2022-09-09T10:09:46;18.70;99.90
17442;DHT22;8838;50.144;8.176;2022-09-09T10:12:22;18.70;99.90
17442;DHT22;8838;50.144;8.176;2022-09-09T10:14:57;18.60;99.90
17442;DHT22;8838;50.144;8.176;2022-09-09T10:17:34;19.10;99.90
17442;DHT22;8838;50.144;8.176;2022-09-09T10:20:19;19.60;99.90
17442;DHT22;8838;50.144;8.176;2022-09-09T10:22:52;20.20;99.90
17442;DHT22;8838;50.144;8.176;2022-09-09T10:25:31;20.20;99.90
17442;DHT22;8838;50.144;8.176;2022-09-09T10:28:19;19.90;99.90
17442;DHT22;8838;50.144;8.176;2022-09-09T10:30:57;19.60;99.90
17442;DHT22;8838;50.144;8.176;2022-09-09T10:33:32;19.20;99.90
17442;DHT22;8838;50.144;8.176;2022-09-09T10:36:09;19.00;99.90
17442;DHT22;8838;50.144;8.176;2022-09-09T10:38:40;18.70;99.90
17442;DHT22;8838;50.144;8.176;2022-09-09T10:41:16;18.50;99.90
17442;DHT22;8838;50.144;8.176;2022-09-09T10:44:05;18.50;99.90
17442;DHT22;8838;50.144;8.176;2022-09-09T10:46:41;18.50;99.90
17442;DHT22;8838;50.144;8.176;2022-09-09T10:49:23;18.60;99.90
17442;DHT22;8838;50.144;8.176;2022-09-09T10:52:02;18.80;99.90
17442;DHT22;8838;50.144;8.176;2022-09-09T10:54:48;19.20;99.90
17442;DHT22;8838;50.144;8.176;2022-09-09T10:57:25;19.30;99.90
17442;DHT22;8838;50.144;8.176;2022-09-09T10:59:56;19.10;99.90
17442;DHT22;8838;50.144;8.176;2022-09-09T11:02:27;19.00;99.90
17442;DHT22;8838;50.144;8.176;2022-09-09T11:05:01;18.80;99.90
17442;DHT22;8838;50.144;8.176;2022-09-09T11:07:34;18.70;99.90
17442;DHT22;8838;50.144;8.176;2022-09-09T11:10:17;18.70;99.90
17442;DHT22;8838;50.144;8.176;2022-09-09T11:12:47;18.80;99.90
17442;DHT22;8838;50.144;8.176;2022-09-09T11:15:20;19.10;99.90
17442;DHT22;8838;50.144;8.176;2022-09-09T11:17:50;20.00;99.90
17442;DHT22;8838;50.144;8.176;2022-09-09T11:20:21;20.30;99.90
17442;DHT22;8838;50.144;8.176;2022-09-09T11:22:53;20.30;99.90
17442;DHT22;8838;50.144;8.176;2022-09-09T11:25:25;20.10;99.90
17442;DHT22;8838;50.144;8.176;2022-09-09T11:28:20;19.80;99.90
17442;DHT22;8838;50.144;8.176;2022-09-09T11:31:02;19.70;99.90
17442;DHT22;8838;50.144;8.176;2022-09-09T11:33:51;19.50;99.90
17442;DHT22;8838;50.144;8.176;2022-09-09T11:39:47;19.60;99.90
17442;DHT22;8838;50.144;8.176;2022-09-09T11:42:19;20.20;99.90
17442;DHT22;8838;50.144;8.176;2022-09-09T11:44:46;21.10;99.90
17442;DHT22;8838;50.144;8.176;2022-09-09T11:47:21;21.60;99.90
17442;DHT22;8838;50.144;8.176;2022-09-09T11:49:50;21.30;99.90
17442;DHT22;8838;50.144;8.176;2022-09-09T11:52:22;21.00;99.90
17442;DHT22;8838;50.144;8.176;2022-09-09T11:54:55;20.40;99.90
17442;DHT22;8838;50.144;8.176;2022-09-09T11:57:27;20.00;99.90
17442;DHT22;8838;50.144;8.176;2022-09-09T11:59:57;19.90;99.90
17442;DHT22;8838;50.144;8.176;2022-09-09T12:02:25;20.50;99.90
17442;DHT22;8838;50.144;8.176;2022-09-09T12:04:58;21.20;99.90
17442;DHT22;8838;50.144;8.176;2022-09-09T12:07:32;21.20;99.90
17442;DHT22;8838;50.144;8.176;2022-09-09T12:10:04;21.10;99.90
17442;DHT22;8838;50.144;8.176;2022-09-09T12:12:34;20.90;99.90
17442;DHT22;8838;50.144;8.176;2022-09-09T12:15:17;20.30;99.90
17442;DHT22;8838;50.144;8.176;2022-09-09T12:17:48;20.00;99.90
17442;DHT22;8838;50.144;8.176;2022-09-09T12:20:18;19.80;99.90
17442;DHT22;8838;50.144;8.176;2022-09-09T12:23:00;19.40;99.90
17442;DHT22;8838;50.144;8.176;2022-09-09T12:25:36;19.20;99.90
17442;DHT22;8838;50.144;8.176;2022-09-09T12:28:11;19.10;99.90
17442;DHT22;8838;50.144;8.176;2022-09-09T12:30:48;19.20;99.90
17442;DHT22;8838;50.144;8.176;2022-09-09T12:33:17;19.80;99.90
17442;DHT22;8838;50.144;8.176;2022-09-09T12:35:48;20.00;99.90
17442;DHT22;8838;50.144;8.176;2022-09-09T12:38:24;20.60;99.90
17442;DHT22;8838;50.144;8.176;2022-09-09T12:40:57;20.70;99.90
17442;DHT22;8838;50.144;8.176;2022-09-09T12:43:25;20.50;99.90
17442;DHT22;8838;50.144;8.176;2022-09-09T12:45:55;20.90;99.90
17442;DHT22;8838;50.144;8.176;2022-09-09T12:48:29;21.10;99.90
17442;DHT22;8838;50.144;8.176;2022-09-09T12:50:57;21.20;99.90
17442;DHT22;8838;50.144;8.176;2022-09-09T12:53:26;21.20;99.90
17442;DHT22;8838;50.144;8.176;2022-09-09T12:55:57;21.40;99.90
17442;DHT22;8838;50.144;8.176;2022-09-09T12:58:25;21.80;99.90
17442;DHT22;8838;50.144;8.176;2022-09-09T13:00:55;22.10;99.90
17442;DHT22;8838;50.144;8.176;2022-09-09T13:03:23;22.10;99.90
17442;DHT22;8838;50.144;8.176;2022-09-09T13:05:51;22.30;99.90
17442;DHT22;8838;50.144;8.176;2022-09-09T13:08:19;22.40;99.90
17442;DHT22;8838;50.144;8.176;2022-09-09T13:10:49;22.40;99.90
17442;DHT22;8838;50.144;8.176;2022-09-09T13:13:23;22.30;99.90
17442;DHT22;8838;50.144;8.176;2022-09-09T13:15:52;22.20;99.90
17442;DHT22;8838;50.144;8.176;2022-09-09T13:18:22;22.50;99.90
17442;DHT22;8838;50.144;8.176;2022-09-09T13:20:50;22.30;99.90
17442;DHT22;8838;50.144;8.176;2022-09-09T13:23:19;22.10;99.90
17442;DHT22;8838;50.144;8.176;2022-09-09T13:25:54;22.20;99.90
17442;DHT22;8838;50.144;8.176;2022-09-09T13:28:24;21.80;99.90
17442;DHT22;8838;50.144;8.176;2022-09-09T13:30:59;21.60;99.90
17442;DHT22;8838;50.144;8.176;2022-09-09T13:33:31;21.40;99.90
17442;DHT22;8838;50.144;8.176;2022-09-09T13:36:00;21.50;99.90
17442;DHT22;8838;50.144;8.176;2022-09-09T13:38:30;21.40;99.90
17442;DHT22;8838;50.144;8.176;2022-09-09T13:40:59;21.20;99.90
17442;DHT22;8838;50.144;8.176;2022-09-09T13:43:31;20.90;99.90
17442;DHT22;8838;50.144;8.176;2022-09-09T13:46:00;20.50;99.90
17442;DHT22;8838;50.144;8.176;2022-09-09T13:48:27;20.00;99.90
17442;DHT22;8838;50.144;8.176;2022-09-09T13:51:03;19.70;99.90
17442;DHT22;8838;50.144;8.176;2022-09-09T13:53:31;19.50;99.90
17442;DHT22;8838;50.144;8.176;2022-09-09T13:55:59;19.30;99.90
17442;DHT22;8838;50.144;8.176;2022-09-09T13:58:26;19.40;99.90
17442;DHT22;8838;50.144;8.176;2022-09-09T14:00:55;19.40;99.90
17442;DHT22;8838;50.144;8.176;2022-09-09T14:03:22;19.40;99.90
17442;DHT22;8838;50.144;8.176;2022-09-09T14:05:49;19.10;99.90
17442;DHT22;8838;50.144;8.176;2022-09-09T14:08:22;19.00;99.90
17442;DHT22;8838;50.144;8.176;2022-09-09T14:10:50;18.80;99.90
17442;DHT22;8838;50.144;8.176;2022-09-09T14:13:17;18.50;99.90
17442;DHT22;8838;50.144;8.176;2022-09-09T14:15:48;18.30;99.90
17442;DHT22;8838;50.144;8.176;2022-09-09T14:18:16;18.00;99.90
17442;DHT22;8838;50.144;8.176;2022-09-09T14:20:45;17.80;99.90
17442;DHT22;8838;50.144;8.176;2022-09-09T14:23:13;17.80;99.90
17442;DHT22;8838;50.144;8.176;2022-09-09T14:25:41;17.90;99.90
17442;DHT22;8838;50.144;8.176;2022-09-09T14:28:10;18.00;99.90
17442;DHT22;8838;50.144;8.176;2022-09-09T14:30:38;18.20;99.90
17442;DHT22;8838;50.144;8.176;2022-09-09T14:33:06;18.30;99.90
17442;DHT22;8838;50.144;8.176;2022-09-09T14:35:35;18.20;99.90
17442;DHT22;8838;50.144;8.176;2022-09-09T14:38:03;18.30;99.90
17442;DHT22;8838;50.144;8.176;2022-09-09T14:40:30;18.30;99.90
17442;DHT22;8838;50.144;8.176;2022-09-09T14:42:57;18.70;99.90
17442;DHT22;8838;50.144;8.176;2022-09-09T14:45:26;19.30;99.90
17442;DHT22;8838;50.144;8.176;2022-09-09T14:47:53;19.60;99.90
17442;DHT22;8838;50.144;8.176;2022-09-09T14:50:20;19.70;99.90
17442;DHT22;8838;50.144;8.176;2022-09-09T14:52:49;19.50;99.90
17442;DHT22;8838;50.144;8.176;2022-09-09T14:55:16;19.40;99.90
17442;DHT22;8838;50.144;8.176;2022-09-09T14:57:43;19.80;99.90
17442;DHT22;8838;50.144;8.176;2022-09-09T15:00:11;20.20;99.90
17442;DHT22;8838;50.144;8.176;2022-09-09T15:02:39;20.30;99.90
17442;DHT22;8838;50.144;8.176;2022-09-09T15:05:06;20.30;99.90
17442;DHT22;8838;50.144;8.176;2022-09-09T15:07:33;19.80;99.90
17442;DHT22;8838;50.144;8.176;2022-09-09T15:10:03;19.30;99.90
17442;DHT22;8838;50.144;8.176;2022-09-09T15:12:30;19.00;99.90
17442;DHT22;8838;50.144;8.176;2022-09-09T15:14:58;18.60;99.90
17442;DHT22;8838;50.144;8.176;2022-09-09T15:17:25;18.40;99.90
17442;DHT22;8838;50.144;8.176;2022-09-09T15:19:52;18.30;99.90
17442;DHT22;8838;50.144;8.176;2022-09-09T15:22:20;17.90;99.90
17442;DHT22;8838;50.144;8.176;2022-09-09T15:24:47;17.80;99.90
17442;DHT22;8838;50.144;8.176;2022-09-09T15:27:15;17.80;99.90
17442;DHT22;8838;50.144;8.176;2022-09-09T15:29:43;17.70;99.90
17442;DHT22;8838;50.144;8.176;2022-09-09T15:32:10;17.80;99.90
17442;DHT22;8838;50.144;8.176;2022-09-09T15:34:37;17.70;99.90
17442;DHT22;8838;50.144;8.176;2022-09-09T15:37:05;17.70;99.90
17442;DHT22;8838;50.144;8.176;2022-09-09T15:39:32;17.80;99.90
17442;DHT22;8838;50.144;8.176;2022-09-09T15:41:59;17.70;99.90
17442;DHT22;8838;50.144;8.176;2022-09-09T15:44:28;17.80;99.90
17442;DHT22;8838;50.144;8.176;2022-09-09T15:46:55;17.80;99.90
17442;DHT22;8838;50.144;8.176;2022-09-09T15:49:23;17.60;99.90
17442;DHT22;8838;50.144;8.176;2022-09-09T15:51:53;17.50;99.90
17442;DHT22;8838;50.144;8.176;2022-09-09T15:54:21;17.70;99.90
17442;DHT22;8838;50.144;8.176;2022-09-09T15:56:51;17.70;99.90
17442;DHT22;8838;50.144;8.176;2022-09-09T15:59:18;17.70;99.90
17442;DHT22;8838;50.144;8.176;2022-09-09T16:01:47;17.70;99.90
17442;DHT22;8838;50.144;8.176;2022-09-09T16:04:15;17.70;99.90
17442;DHT22;8838;50.144;8.176;2022-09-09T16:06:48;17.70;99.90
17442;DHT22;8838;50.144;8.176;2022-09-09T16:09:16;17.60;99.90
17442;DHT22;8838;50.144;8.176;2022-09-09T16:11:43;17.50;99.90
17442;DHT22;8838;50.144;8.176;2022-09-09T16:14:11;17.40;99.90
17442;DHT22;8838;50.144;8.176;2022-09-09T16:16:38;17.50;99.90